sensor_id;sensor_type;location;lat;lon;timestamp;pressure;altitude;pressure_sealevel;temperature;humidity
59608;BME280;45426;44.726;10.390;2022-08-24T00:01:24;100436.69;;;23.71;100.00
59608;BME280;45426;44.726;10.390;2022-08-24T00:03:52;100440.00;;;23.38;100.00
59608;BME280;45426;44.726;10.390;2022-08-24T00:06:20;100434.59;;;23.55;100.00
59608;BME280;45426;44.726;10.390;2022-08-24T00:08:48;100435.38;;;23.55;100.00
59608;BME280;45426;44.726;10.390;2022-08-24T00:11:14;100437.59;;;23.40;100.00
59608;BME280;45426;44.726;10.390;2022-08-24T00:13:43;100438.97;;;23.79;100.00
59608;BME280;45426;44.726;10.390;2022-08-24T00:16:09;100437.94;;;23.93;100.00
59608;BME280;45426;44.726;10.390;2022-08-24T00:18:36;100431.09;;;23.74;100.00
59608;BME280;45426;44.726;10.390;2022-08-24T00:21:02;100434.94;;;23.33;100.00
59608;BME280;45426;44.726;10.390;2022-08-24T00:23:30;100433.88;;;23.74;100.00
59608;BME280;45426;44.726;10.390;2022-08-24T00:25:56;100439.47;;;23.71;100.00
59608;BME280;45426;44.726;10.390;2022-08-24T00:28:21;100434.88;;;23.37;100.00
59608;BME280;45426;44.726;10.390;2022-08-24T00:30:47;100438.94;;;23.56;100.00
59608;BME280;45426;44.726;10.390;2022-08-24T00:33:13;100434.75;;;23.68;100.00
59608;BME280;45426;44.726;10.390;2022-08-24T00:35:38;100440.72;;;23.42;100.00
59608;BME280;45426;44.726;10.390;2022-08-24T00:38:04;100438.78;;;23.39;100.00
59608;BME280;45426;44.726;10.390;2022-08-24T00:40:33;100443.50;;;22.84;100.00
59608;BME280;45426;44.726;10.390;2022-08-24T00:43:00;100437.41;;;22.66;100.00
59608;BME280;45426;44.726;10.390;2022-08-24T00:45:29;100435.16;;;22.57;100.00
59608;BME280;45426;44.726;10.390;2022-08-24T00:48:02;100437.06;;;22.91;100.00
59608;BME280;45426;44.726;10.390;2022-08-24T00:53:09;100442.72;;;22.53;100.00
59608;BME280;45426;44.726;10.390;2022-08-24T00:55:48;100434.56;;;22.39;100.00
59608;BME280;45426;44.726;10.390;2022-08-24T00:58:18;100431.22;;;22.55;100.00
59608;BME280;45426;44.726;10.390;2022-08-24T01:00:56;100429.22;;;22.90;100.00
59608;BME280;45426;44.726;10.390;2022-08-24T01:03:23;100439.03;;;23.25;100.00
59608;BME280;45426;44.726;10.390;2022-08-24T01:05:50;100435.53;;;23.44;100.00
59608;BME280;45426;44.726;10.390;2022-08-24T01:08:16;100432.16;;;23.33;100.00
59608;BME280;45426;44.726;10.390;2022-08-24T01:10:46;100439.75;;;23.29;100.00
59608;BME280;45426;44.726;10.390;2022-08-24T01:13:14;100441.34;;;22.99;100.00
59608;BME280;45426;44.726;10.390;2022-08-24T01:15:43;100440.84;;;23.35;100.00
59608;BME280;45426;44.726;10.390;2022-08-24T01:18:13;100442.91;;;22.70;100.00
59608;BME280;45426;44.726;10.390;2022-08-24T01:21:09;100438.94;;;23.01;100.00
59608;BME280;45426;44.726;10.390;2022-08-24T01:23:40;100442.56;;;22.95;100.00
59608;BME280;45426;44.726;10.390;2022-08-24T01:26:08;100445.31;;;22.67;100.00
59608;BME280;45426;44.726;10.390;2022-08-24T01:28:35;100443.72;;;22.36;100.00
59608;BME280;45426;44.726;10.390;2022-08-24T01:31:04;100448.41;;;21.97;100.00
59608;BME280;45426;44.726;10.390;2022-08-24T01:33:30;100447.06;;;22.13;100.00
59608;BME280;45426;44.726;10.390;2022-08-24T01:36:01;100456.72;;;22.39;100.00
59608;BME280;45426;44.726;10.390;2022-08-24T01:38:27;100442.13;;;23.00;100.00
59608;BME280;45426;44.726;10.390;2022-08-24T01:40:57;100441.63;;;23.09;100.00
59608;BME280;45426;44.726;10.390;2022-08-24T01:43:23;100447.19;;;23.09;100.00
59608;BME280;45426;44.726;10.390;2022-08-24T01:45:49;100448.44;;;23.00;100.00
59608;BME280;45426;44.726;10.390;2022-08-24T01:48:15;100442.69;;;23.18;100.00
59608;BME280;45426;44.726;10.390;2022-08-24T01:50:41;100438.88;;;23.09;100.00
59608;BME280;45426;44.726;10.390;2022-08-24T01:53:07;100438.53;;;23.03;100.00
59608;BME280;45426;44.726;10.390;2022-08-24T01:55:34;100441.69;;;23.01;100.00
59608;BME280;45426;44.726;10.390;2022-08-24T01:58:00;100438.06;;;22.77;100.00
59608;BME280;45426;44.726;10.390;2022-08-24T02:00:26;100445.88;;;22.52;100.00
59608;BME280;45426;44.726;10.390;2022-08-24T02:02:52;100444.75;;;22.80;100.00
59608;BME280;45426;44.726;10.390;2022-08-24T02:05:17;100445.84;;;22.55;100.00
59608;BME280;45426;44.726;10.390;2022-08-24T02:07:43;100447.19;;;22.43;100.00
59608;BME280;45426;44.726;10.390;2022-08-24T02:10:12;100447.81;;;22.20;100.00
59608;BME280;45426;44.726;10.390;2022-08-24T02:12:39;100455.97;;;22.35;100.00
59608;BME280;45426;44.726;10.390;2022-08-24T02:15:07;100455.81;;;22.49;100.00
59608;BME280;45426;44.726;10.390;2022-08-24T02:17:34;100452.72;;;22.43;100.00
59608;BME280;45426;44.726;10.390;2022-08-24T02:20:00;100459.91;;;22.37;100.00
59608;BME280;45426;44.726;10.390;2022-08-24T02:22:26;100460.25;;;22.43;100.00
59608;BME280;45426;44.726;10.390;2022-08-24T02:24:51;100460.63;;;22.45;100.00
59608;BME280;45426;44.726;10.390;2022-08-24T02:27:17;100464.19;;;22.42;100.00
59608;BME280;45426;44.726;10.390;2022-08-24T02:29:43;100460.66;;;22.41;100.00
59608;BME280;45426;44.726;10.390;2022-08-24T02:32:10;100456.25;;;22.44;100.00
59608;BME280;45426;44.726;10.390;2022-08-24T02:34:37;100465.63;;;22.54;100.00
59608;BME280;45426;44.726;10.390;2022-08-24T02:37:02;100463.72;;;22.51;100.00
59608;BME280;45426;44.726;10.390;2022-08-24T02:39:28;100467.59;;;22.57;100.00
59608;BME280;45426;44.726;10.390;2022-08-24T02:41:53;100470.22;;;22.33;100.00
59608;BME280;45426;44.726;10.390;2022-08-24T02:44:19;100467.78;;;22.39;100.00
59608;BME280;45426;44.726;10.390;2022-08-24T02:46:45;100467.25;;;22.51;100.00
59608;BME280;45426;44.726;10.390;2022-08-24T02:49:11;100468.47;;;22.50;100.00
59608;BME280;45426;44.726;10.390;2022-08-24T02:51:37;100463.06;;;22.39;100.00
59608;BME280;45426;44.726;10.390;2022-08-24T02:54:04;100465.47;;;22.34;100.00
59608;BME280;45426;44.726;10.390;2022-08-24T02:56:30;100468.28;;;22.64;100.00
59608;BME280;45426;44.726;10.390;2022-08-24T02:58:57;100466.03;;;22.56;100.00
59608;BME280;45426;44.726;10.390;2022-08-24T03:01:24;100466.13;;;22.48;100.00
59608;BME280;45426;44.726;10.390;2022-08-24T03:03:49;100475.94;;;22.53;100.00
59608;BME280;45426;44.726;10.390;2022-08-24T03:06:16;100476.56;;;22.34;100.00
59608;BME280;45426;44.726;10.390;2022-08-24T03:08:42;100473.31;;;22.39;100.00
59608;BME280;45426;44.726;10.390;2022-08-24T03:11:09;100476.16;;;22.35;100.00
59608;BME280;45426;44.726;10.390;2022-08-24T03:13:35;100480.94;;;22.27;100.00
59608;BME280;45426;44.726;10.390;2022-08-24T03:16:00;100484.53;;;22.24;100.00
59608;BME280;45426;44.726;10.390;2022-08-24T03:18:26;100482.84;;;21.93;100.00
59608;BME280;45426;44.726;10.390;2022-08-24T03:20:53;100487.22;;;21.34;100.00
59608;BME280;45426;44.726;10.390;2022-08-24T03:23:19;100485.09;;;21.56;100.00
59608;BME280;45426;44.726;10.390;2022-08-24T03:25:44;100482.91;;;21.22;100.00
59608;BME280;45426;44.726;10.390;2022-08-24T03:28:11;100481.19;;;21.54;100.00
59608;BME280;45426;44.726;10.390;2022-08-24T03:30:38;100481.56;;;22.01;100.00
59608;BME280;45426;44.726;10.390;2022-08-24T03:33:04;100474.78;;;21.64;100.00
59608;BME280;45426;44.726;10.390;2022-08-24T03:35:30;100469.28;;;21.60;100.00
59608;BME280;45426;44.726;10.390;2022-08-24T03:37:56;100478.69;;;22.15;100.00
59608;BME280;45426;44.726;10.390;2022-08-24T03:40:21;100483.25;;;21.35;100.00
59608;BME280;45426;44.726;10.390;2022-08-24T03:42:48;100491.13;;;20.45;100.00
59608;BME280;45426;44.726;10.390;2022-08-24T03:45:14;100479.97;;;20.81;100.00
59608;BME280;45426;44.726;10.390;2022-08-24T03:47:39;100483.13;;;20.79;100.00
59608;BME280;45426;44.726;10.390;2022-08-24T03:50:06;100485.88;;;20.83;100.00
59608;BME280;45426;44.726;10.390;2022-08-24T03:52:32;100477.94;;;20.99;100.00
59608;BME280;45426;44.726;10.390;2022-08-24T03:55:01;100481.41;;;21.10;100.00
59608;BME280;45426;44.726;10.390;2022-08-24T03:57:27;100478.34;;;20.90;100.00
59608;BME280;45426;44.726;10.390;2022-08-24T03:59:52;100480.38;;;20.79;100.00
59608;BME280;45426;44.726;10.390;2022-08-24T04:02:18;100485.19;;;20.50;100.00
59608;BME280;45426;44.726;10.390;2022-08-24T04:04:44;100473.69;;;20.80;100.00
59608;BME280;45426;44.726;10.390;2022-08-24T04:07:10;100472.97;;;20.44;100.00
59608;BME280;45426;44.726;10.390;2022-08-24T04:09:35;100468.16;;;20.84;100.00
59608;BME280;45426;44.726;10.390;2022-08-24T04:12:00;100463.31;;;21.02;100.00
59608;BME280;45426;44.726;10.390;2022-08-24T04:14:26;100467.25;;;21.01;100.00
59608;BME280;45426;44.726;10.390;2022-08-24T04:16:52;100460.59;;;20.95;100.00
59608;BME280;45426;44.726;10.390;2022-08-24T04:19:17;100467.78;;;20.78;100.00
59608;BME280;45426;44.726;10.390;2022-08-24T04:21:42;100473.81;;;20.23;100.00
59608;BME280;45426;44.726;10.390;2022-08-24T04:24:09;100476.59;;;20.05;100.00
59608;BME280;45426;44.726;10.390;2022-08-24T04:26:37;100481.25;;;20.44;100.00
59608;BME280;45426;44.726;10.390;2022-08-24T04:29:03;100481.69;;;20.28;100.00
59608;BME280;45426;44.726;10.390;2022-08-24T04:31:29;100468.91;;;20.84;100.00
59608;BME280;45426;44.726;10.390;2022-08-24T04:33:55;100475.19;;;20.92;100.00
59608;BME280;45426;44.726;10.390;2022-08-24T04:36:21;100485.16;;;20.53;100.00
59608;BME280;45426;44.726;10.390;2022-08-24T04:38:48;100484.84;;;20.33;100.00
59608;BME280;45426;44.726;10.390;2022-08-24T04:41:15;100487.19;;;20.35;100.00
59608;BME280;45426;44.726;10.390;2022-08-24T04:43:45;100493.41;;;20.71;100.00
59608;BME280;45426;44.726;10.390;2022-08-24T04:46:12;100484.72;;;20.77;100.00
59608;BME280;45426;44.726;10.390;2022-08-24T04:48:40;100482.19;;;21.11;100.00
59608;BME280;45426;44.726;10.390;2022-08-24T04:51:07;100492.31;;;20.36;100.00
59608;BME280;45426;44.726;10.390;2022-08-24T04:53:34;100486.94;;;21.10;100.00
59608;BME280;45426;44.726;10.390;2022-08-24T04:55:59;100491.75;;;20.92;100.00
59608;BME280;45426;44.726;10.390;2022-08-24T04:58:26;100504.88;;;20.66;100.00
59608;BME280;45426;44.726;10.390;2022-08-24T05:00:52;100506.91;;;20.33;100.00
59608;BME280;45426;44.726;10.390;2022-08-24T05:03:19;100492.47;;;21.07;100.00
59608;BME280;45426;44.726;10.390;2022-08-24T05:05:47;100498.63;;;20.41;100.00
59608;BME280;45426;44.726;10.390;2022-08-24T05:08:13;100499.84;;;20.04;100.00
59608;BME280;45426;44.726;10.390;2022-08-24T05:10:40;100508.13;;;20.04;100.00
59608;BME280;45426;44.726;10.390;2022-08-24T05:13:07;100500.63;;;20.22;100.00
59608;BME280;45426;44.726;10.390;2022-08-24T05:15:33;100505.31;;;20.61;100.00
59608;BME280;45426;44.726;10.390;2022-08-24T05:18:00;100493.59;;;21.17;100.00
59608;BME280;45426;44.726;10.390;2022-08-24T05:20:26;100506.44;;;20.67;100.00
59608;BME280;45426;44.726;10.390;2022-08-24T05:22:52;100508.38;;;20.74;100.00
59608;BME280;45426;44.726;10.390;2022-08-24T05:25:18;100513.19;;;20.38;100.00
59608;BME280;45426;44.726;10.390;2022-08-24T05:27:43;100522.69;;;20.22;100.00
59608;BME280;45426;44.726;10.390;2022-08-24T05:30:09;100529.34;;;20.50;100.00
59608;BME280;45426;44.726;10.390;2022-08-24T05:32:36;100523.03;;;20.60;100.00
59608;BME280;45426;44.726;10.390;2022-08-24T05:35:02;100520.28;;;20.60;100.00
59608;BME280;45426;44.726;10.390;2022-08-24T05:37:30;100525.28;;;20.98;100.00
59608;BME280;45426;44.726;10.390;2022-08-24T05:39:56;100515.28;;;21.22;100.00
59608;BME280;45426;44.726;10.390;2022-08-24T05:42:21;100514.59;;;21.77;100.00
59608;BME280;45426;44.726;10.390;2022-08-24T05:44:47;100513.91;;;22.11;100.00
59608;BME280;45426;44.726;10.390;2022-08-24T05:47:12;100521.69;;;22.27;100.00
59608;BME280;45426;44.726;10.390;2022-08-24T05:49:38;100525.47;;;22.44;100.00
59608;BME280;45426;44.726;10.390;2022-08-24T05:52:03;100522.09;;;22.63;100.00
59608;BME280;45426;44.726;10.390;2022-08-24T05:54:29;100518.19;;;22.57;100.00
59608;BME280;45426;44.726;10.390;2022-08-24T05:56:54;100527.03;;;22.45;100.00
59608;BME280;45426;44.726;10.390;2022-08-24T05:59:21;100523.03;;;22.49;100.00
59608;BME280;45426;44.726;10.390;2022-08-24T06:01:48;100526.34;;;22.72;100.00
59608;BME280;45426;44.726;10.390;2022-08-24T06:04:13;100519.44;;;22.87;100.00
59608;BME280;45426;44.726;10.390;2022-08-24T06:06:39;100526.81;;;23.01;100.00
59608;BME280;45426;44.726;10.390;2022-08-24T06:09:05;100538.81;;;23.25;100.00
59608;BME280;45426;44.726;10.390;2022-08-24T06:11:36;100524.88;;;23.56;100.00
59608;BME280;45426;44.726;10.390;2022-08-24T06:14:06;100523.81;;;23.73;100.00
59608;BME280;45426;44.726;10.390;2022-08-24T06:16:36;100528.41;;;23.87;100.00
59608;BME280;45426;44.726;10.390;2022-08-24T06:19:02;100526.34;;;24.15;100.00
59608;BME280;45426;44.726;10.390;2022-08-24T06:21:29;100528.91;;;24.06;100.00
59608;BME280;45426;44.726;10.390;2022-08-24T06:23:56;100531.97;;;24.11;100.00
59608;BME280;45426;44.726;10.390;2022-08-24T06:26:21;100533.09;;;24.37;100.00
59608;BME280;45426;44.726;10.390;2022-08-24T06:29:07;100535.72;;;24.68;100.00
59608;BME280;45426;44.726;10.390;2022-08-24T06:31:42;100534.50;;;24.89;100.00
59608;BME280;45426;44.726;10.390;2022-08-24T06:34:10;100548.03;;;25.27;100.00
59608;BME280;45426;44.726;10.390;2022-08-24T06:36:35;100542.97;;;25.91;100.00
59608;BME280;45426;44.726;10.390;2022-08-24T06:39:01;100537.69;;;25.97;100.00
59608;BME280;45426;44.726;10.390;2022-08-24T06:41:26;100532.94;;;26.43;100.00
59608;BME280;45426;44.726;10.390;2022-08-24T06:43:52;100538.88;;;26.87;100.00
59608;BME280;45426;44.726;10.390;2022-08-24T06:46:18;100542.91;;;27.93;100.00
59608;BME280;45426;44.726;10.390;2022-08-24T06:48:43;100545.13;;;29.43;100.00
59608;BME280;45426;44.726;10.390;2022-08-24T06:51:11;100547.50;;;31.81;100.00
59608;BME280;45426;44.726;10.390;2022-08-24T06:53:37;100540.28;;;34.33;100.00
59608;BME280;45426;44.726;10.390;2022-08-24T06:56:03;100552.38;;;35.50;100.00
59608;BME280;45426;44.726;10.390;2022-08-24T06:58:29;100548.22;;;38.42;100.00
59608;BME280;45426;44.726;10.390;2022-08-24T07:00:55;100551.69;;;40.06;100.00
59608;BME280;45426;44.726;10.390;2022-08-24T07:03:22;100551.75;;;38.01;100.00
59608;BME280;45426;44.726;10.390;2022-08-24T07:05:49;100550.25;;;40.88;100.00
59608;BME280;45426;44.726;10.390;2022-08-24T07:08:15;100548.28;;;40.64;100.00
59608;BME280;45426;44.726;10.390;2022-08-24T07:10:40;100550.28;;;41.87;100.00
59608;BME280;45426;44.726;10.390;2022-08-24T07:13:06;100550.84;;;42.68;100.00
59608;BME280;45426;44.726;10.390;2022-08-24T07:15:32;100544.81;;;41.63;100.00
59608;BME280;45426;44.726;10.390;2022-08-24T07:17:58;100554.44;;;39.92;100.00
59608;BME280;45426;44.726;10.390;2022-08-24T07:20:23;100548.66;;;41.79;100.00
59608;BME280;45426;44.726;10.390;2022-08-24T07:22:49;100544.88;;;42.45;100.00
59608;BME280;45426;44.726;10.390;2022-08-24T07:25:14;100552.38;;;42.35;100.00
59608;BME280;45426;44.726;10.390;2022-08-24T07:27:40;100547.34;;;43.25;100.00
59608;BME280;45426;44.726;10.390;2022-08-24T07:30:06;100544.72;;;43.56;100.00
59608;BME280;45426;44.726;10.390;2022-08-24T07:32:32;100552.78;;;43.65;100.00
59608;BME280;45426;44.726;10.390;2022-08-24T07:34:58;100553.94;;;37.61;100.00
59608;BME280;45426;44.726;10.390;2022-08-24T07:37:24;100548.78;;;43.11;100.00
59608;BME280;45426;44.726;10.390;2022-08-24T07:39:50;100553.13;;;41.87;100.00
59608;BME280;45426;44.726;10.390;2022-08-24T07:42:15;100551.81;;;40.70;100.00
59608;BME280;45426;44.726;10.390;2022-08-24T07:44:41;100550.38;;;41.42;100.00
59608;BME280;45426;44.726;10.390;2022-08-24T07:47:06;100547.31;;;41.93;100.00
59608;BME280;45426;44.726;10.390;2022-08-24T07:49:32;100546.97;;;42.58;100.00
59608;BME280;45426;44.726;10.390;2022-08-24T07:51:57;100556.56;;;42.34;100.00
59608;BME280;45426;44.726;10.390;2022-08-24T07:54:23;100551.53;;;42.61;100.00
59608;BME280;45426;44.726;10.390;2022-08-24T07:56:49;100553.44;;;44.23;100.00
59608;BME280;45426;44.726;10.390;2022-08-24T07:59:15;100560.00;;;39.79;100.00
59608;BME280;45426;44.726;10.390;2022-08-24T08:01:40;100554.22;;;40.85;100.00
59608;BME280;45426;44.726;10.390;2022-08-24T08:04:06;100551.81;;;40.89;100.00
59608;BME280;45426;44.726;10.390;2022-08-24T08:06:32;100549.75;;;41.03;100.00
59608;BME280;45426;44.726;10.390;2022-08-24T08:08:57;100554.22;;;42.11;100.00
59608;BME280;45426;44.726;10.390;2022-08-24T08:11:23;100560.97;;;40.25;100.00
59608;BME280;45426;44.726;10.390;2022-08-24T08:13:48;100551.16;;;40.97;100.00
59608;BME280;45426;44.726;10.390;2022-08-24T08:16:14;100550.41;;;38.19;100.00
59608;BME280;45426;44.726;10.390;2022-08-24T08:18:40;100552.69;;;37.11;100.00
59608;BME280;45426;44.726;10.390;2022-08-24T08:21:08;100551.38;;;39.90;100.00
59608;BME280;45426;44.726;10.390;2022-08-24T08:23:53;100555.97;;;39.44;100.00
59608;BME280;45426;44.726;10.390;2022-08-24T08:26:37;100564.41;;;34.60;100.00
59608;BME280;45426;44.726;10.390;2022-08-24T08:29:03;100561.72;;;33.19;100.00
59608;BME280;45426;44.726;10.390;2022-08-24T08:31:28;100561.59;;;32.44;100.00
59608;BME280;45426;44.726;10.390;2022-08-24T08:33:54;100568.19;;;33.10;100.00
59608;BME280;45426;44.726;10.390;2022-08-24T08:36:19;100572.88;;;33.13;100.00
59608;BME280;45426;44.726;10.390;2022-08-24T08:38:46;100555.19;;;32.98;100.00
59608;BME280;45426;44.726;10.390;2022-08-24T08:43:48;100555.47;;;32.31;100.00
59608;BME280;45426;44.726;10.390;2022-08-24T08:49:14;100559.25;;;32.43;100.00
59608;BME280;45426;44.726;10.390;2022-08-24T08:52:07;100560.91;;;31.44;100.00
59608;BME280;45426;44.726;10.390;2022-08-24T09:00:12;100573.31;;;31.70;100.00
59608;BME280;45426;44.726;10.390;2022-08-24T09:07:58;100563.53;;;32.38;100.00
59608;BME280;45426;44.726;10.390;2022-08-24T09:16:01;100556.72;;;32.06;100.00
59608;BME280;45426;44.726;10.390;2022-08-24T09:18:45;100557.56;;;31.97;100.00
59608;BME280;45426;44.726;10.390;2022-08-24T09:24:19;100557.78;;;30.99;100.00
59608;BME280;45426;44.726;10.390;2022-08-24T09:35:18;100553.75;;;31.00;100.00
59608;BME280;45426;44.726;10.390;2022-08-24T09:50:00;100535.53;;;32.44;100.00
59608;BME280;45426;44.726;10.390;2022-08-24T10:00:24;100530.06;;;31.34;100.00
59608;BME280;45426;44.726;10.390;2022-08-24T10:05:27;100528.72;;;31.30;100.00
59608;BME280;45426;44.726;10.390;2022-08-24T10:13:25;100518.38;;;31.36;100.00
59608;BME280;45426;44.726;10.390;2022-08-24T10:16:13;100525.56;;;31.37;100.00
59608;BME280;45426;44.726;10.390;2022-08-24T10:26:45;100512.00;;;31.69;100.00
59608;BME280;45426;44.726;10.390;2022-08-24T10:32:25;100512.22;;;32.14;100.00
59608;BME280;45426;44.726;10.390;2022-08-24T10:35:03;100506.84;;;30.91;100.00
59608;BME280;45426;44.726;10.390;2022-08-24T10:44:05;100502.56;;;31.81;100.00
59608;BME280;45426;44.726;10.390;2022-08-24T10:46:47;100501.22;;;30.82;100.00
59608;BME280;45426;44.726;10.390;2022-08-24T10:49:30;100488.16;;;31.64;100.00
59608;BME280;45426;44.726;10.390;2022-08-24T10:54:24;100500.94;;;30.80;100.00
59608;BME280;45426;44.726;10.390;2022-08-24T10:59:41;100491.63;;;31.83;100.00
59608;BME280;45426;44.726;10.390;2022-08-24T11:02:32;100496.47;;;30.64;100.00
59608;BME280;45426;44.726;10.390;2022-08-24T11:05:04;100484.97;;;31.47;100.00
59608;BME280;45426;44.726;10.390;2022-08-24T11:07:32;100483.00;;;31.63;100.00
59608;BME280;45426;44.726;10.390;2022-08-24T11:10:03;100485.75;;;31.96;100.00
59608;BME280;45426;44.726;10.390;2022-08-24T11:12:33;100483.69;;;31.58;100.00
59608;BME280;45426;44.726;10.390;2022-08-24T11:15:18;100487.81;;;32.35;100.00
59608;BME280;45426;44.726;10.390;2022-08-24T11:18:01;100494.69;;;30.94;100.00
59608;BME280;45426;44.726;10.390;2022-08-24T11:20:31;100486.06;;;31.74;100.00
59608;BME280;45426;44.726;10.390;2022-08-24T11:25:31;100479.81;;;32.03;100.00
59608;BME280;45426;44.726;10.390;2022-08-24T11:28:06;100492.53;;;31.89;100.00
59608;BME280;45426;44.726;10.390;2022-08-24T11:30:38;100487.16;;;30.40;100.00
59608;BME280;45426;44.726;10.390;2022-08-24T11:33:05;100478.50;;;31.32;100.00
59608;BME280;45426;44.726;10.390;2022-08-24T11:35:47;100486.19;;;30.43;100.00
59608;BME280;45426;44.726;10.390;2022-08-24T11:38:22;100476.00;;;30.82;100.00
59608;BME280;45426;44.726;10.390;2022-08-24T11:46:36;100499.88;;;30.59;100.00
59608;BME280;45426;44.726;10.390;2022-08-24T11:54:47;100473.53;;;32.62;100.00
59608;BME280;45426;44.726;10.390;2022-08-24T11:57:25;100477.09;;;31.61;100.00
59608;BME280;45426;44.726;10.390;2022-08-24T12:00:04;100464.56;;;32.34;100.00
59608;BME280;45426;44.726;10.390;2022-08-24T12:02:59;100477.41;;;31.63;100.00
59608;BME280;45426;44.726;10.390;2022-08-24T12:08:29;100473.34;;;31.88;100.00
59608;BME280;45426;44.726;10.390;2022-08-24T12:11:14;100487.50;;;31.93;100.00
59608;BME280;45426;44.726;10.390;2022-08-24T12:13:56;100474.81;;;31.17;100.00
59608;BME280;45426;44.726;10.390;2022-08-24T12:19:17;100480.38;;;32.07;100.00
59608;BME280;45426;44.726;10.390;2022-08-24T12:21:45;100476.34;;;32.08;100.00
59608;BME280;45426;44.726;10.390;2022-08-24T12:24:25;100475.28;;;32.21;100.00
59608;BME280;45426;44.726;10.390;2022-08-24T12:26:57;100472.66;;;32.02;100.00
59608;BME280;45426;44.726;10.390;2022-08-24T12:29:30;100469.34;;;31.56;100.00
59608;BME280;45426;44.726;10.390;2022-08-24T12:32:00;100474.88;;;32.13;100.00
59608;BME280;45426;44.726;10.390;2022-08-24T12:35:07;100467.94;;;31.99;100.00
59608;BME280;45426;44.726;10.390;2022-08-24T12:37:44;100466.97;;;31.87;100.00
59608;BME280;45426;44.726;10.390;2022-08-24T12:43:13;100467.53;;;31.91;100.00
59608;BME280;45426;44.726;10.390;2022-08-24T12:45:42;100452.06;;;32.50;100.00
59608;BME280;45426;44.726;10.390;2022-08-24T12:50:41;100451.84;;;31.61;100.00
59608;BME280;45426;44.726;10.390;2022-08-24T13:02:41;100450.44;;;32.58;100.00
59608;BME280;45426;44.726;10.390;2022-08-24T13:48:21;100412.41;;;32.33;100.00
59608;BME280;45426;44.726;10.390;2022-08-24T13:50:58;100421.03;;;31.42;100.00
59608;BME280;45426;44.726;10.390;2022-08-24T13:58:48;100415.41;;;31.90;100.00
59608;BME280;45426;44.726;10.390;2022-08-24T14:12:10;100404.31;;;31.72;100.00
59608;BME280;45426;44.726;10.390;2022-08-24T14:17:27;100410.53;;;32.15;100.00
59608;BME280;45426;44.726;10.390;2022-08-24T14:23:43;100398.72;;;32.56;100.00
59608;BME280;45426;44.726;10.390;2022-08-24T14:29:34;100408.47;;;31.62;100.00
59608;BME280;45426;44.726;10.390;2022-08-24T14:34:50;100406.84;;;31.70;100.00
59608;BME280;45426;44.726;10.390;2022-08-24T14:54:19;100399.81;;;32.28;100.00
59608;BME280;45426;44.726;10.390;2022-08-24T14:59:49;100397.03;;;31.89;100.00
59608;BME280;45426;44.726;10.390;2022-08-24T15:08:02;100403.75;;;32.07;100.00
59608;BME280;45426;44.726;10.390;2022-08-24T15:10:36;100399.72;;;32.08;100.00
59608;BME280;45426;44.726;10.390;2022-08-24T15:13:23;100384.88;;;32.52;100.00
59608;BME280;45426;44.726;10.390;2022-08-24T15:15:56;100391.88;;;32.42;100.00
59608;BME280;45426;44.726;10.390;2022-08-24T15:26:56;100392.06;;;32.38;100.00
59608;BME280;45426;44.726;10.390;2022-08-24T15:29:30;100399.38;;;32.06;100.00
59608;BME280;45426;44.726;10.390;2022-08-24T15:32:09;100394.22;;;31.89;100.00
59608;BME280;45426;44.726;10.390;2022-08-24T15:37:34;100397.78;;;31.90;100.00
59608;BME280;45426;44.726;10.390;2022-08-24T15:40:03;100391.03;;;31.97;100.00
59608;BME280;45426;44.726;10.390;2022-08-24T15:42:33;100388.94;;;32.06;100.00
59608;BME280;45426;44.726;10.390;2022-08-24T15:45:01;100385.94;;;32.10;100.00
59608;BME280;45426;44.726;10.390;2022-08-24T15:47:32;100396.03;;;32.46;100.00
59608;BME280;45426;44.726;10.390;2022-08-24T15:50:05;100396.59;;;32.21;100.00
59608;BME280;45426;44.726;10.390;2022-08-24T15:52:47;100389.53;;;32.55;100.00
59608;BME280;45426;44.726;10.390;2022-08-24T15:55:35;100397.69;;;32.23;100.00
59608;BME280;45426;44.726;10.390;2022-08-24T16:00:43;100401.66;;;31.92;100.00
59608;BME280;45426;44.726;10.390;2022-08-24T16:03:47;100404.19;;;31.42;100.00
59608;BME280;45426;44.726;10.390;2022-08-24T16:06:41;100409.91;;;31.57;100.00
59608;BME280;45426;44.726;10.390;2022-08-24T16:11:48;100395.91;;;32.11;100.00
59608;BME280;45426;44.726;10.390;2022-08-24T16:17:00;100403.75;;;31.68;100.00
59608;BME280;45426;44.726;10.390;2022-08-24T16:19:49;100396.41;;;31.46;100.00
59608;BME280;45426;44.726;10.390;2022-08-24T16:22:23;100402.25;;;31.33;100.00
59608;BME280;45426;44.726;10.390;2022-08-24T16:25:07;100401.63;;;31.78;100.00
59608;BME280;45426;44.726;10.390;2022-08-24T16:30:52;100393.41;;;31.89;100.00
59608;BME280;45426;44.726;10.390;2022-08-24T16:35:58;100389.19;;;31.54;100.00
59608;BME280;45426;44.726;10.390;2022-08-24T16:38:27;100397.81;;;31.42;100.00
59608;BME280;45426;44.726;10.390;2022-08-24T16:40:56;100387.81;;;31.50;100.00
59608;BME280;45426;44.726;10.390;2022-08-24T16:43:22;100388.03;;;31.37;100.00
59608;BME280;45426;44.726;10.390;2022-08-24T16:45:48;100383.78;;;31.42;100.00